createdAt,value
2023-04-08T00:01:20.914Z,244.72
2023-04-08T00:02:52.362Z,248.72
2023-04-08T00:04:24.001Z,319.20
2023-04-08T00:05:55.417Z,271.83
2023-04-08T00:07:26.774Z,291.44
2023-04-08T00:09:03.331Z,297.76
2023-04-08T00:10:34.737Z,304.08
2023-04-08T00:12:05.986Z,140.31
2023-04-08T00:13:37.320Z,191.90
2023-04-08T00:15:08.635Z,96.76
2023-04-08T00:16:40.153Z,62.21
2023-04-08T00:18:11.420Z,51.16
2023-04-08T00:19:42.681Z,47.55
2023-04-08T00:21:13.832Z,48.67
2023-04-08T00:22:45.152Z,53.89
2023-04-08T00:24:16.536Z,52.52
2023-04-08T00:25:48.538Z,51.55
2023-04-08T00:27:19.907Z,48.28
2023-04-08T00:28:52.224Z,47.16
2023-04-08T00:30:23.684Z,44.51
2023-04-08T00:31:54.995Z,43.97
2023-04-08T00:33:26.560Z,46.62
2023-04-08T00:34:58.044Z,40.10
2023-04-08T00:36:29.275Z,42.16
2023-04-08T00:38:00.563Z,43.01
2023-04-08T00:39:42.056Z,43.82
2023-04-08T00:41:13.531Z,44.01
2023-04-08T00:42:45.188Z,46.68
2023-04-08T00:44:16.745Z,47.31
2023-04-08T00:45:48.340Z,47.22
2023-04-08T00:47:19.676Z,51.06
2023-04-08T00:48:51.395Z,54.43
2023-04-08T00:50:22.891Z,54.72
2023-04-08T00:51:54.502Z,53.94
2023-04-08T00:53:25.993Z,48.33
2023-04-08T00:54:57.506Z,51.25
2023-04-08T00:56:28.920Z,51.62
2023-04-08T00:58:00.251Z,52.40
2023-04-08T00:59:31.457Z,53.06
2023-04-08T01:01:02.981Z,51.85
2023-04-08T01:02:34.630Z,54.20
2023-04-08T01:04:06.135Z,50.16
2023-04-08T01:05:37.737Z,44.64
2023-04-08T01:07:08.912Z,48.76
2023-04-08T01:08:40.138Z,43.59
2023-04-08T01:10:11.618Z,40.37
2023-04-08T01:11:42.804Z,38.21
2023-04-08T01:13:13.960Z,41.10
2023-04-08T01:14:45.232Z,40.92
2023-04-08T01:16:49.742Z,39.64
2023-04-08T01:18:25.983Z,39.11
2023-04-08T01:19:57.324Z,38.63
2023-04-08T01:21:29.116Z,33.44
2023-04-08T01:23:00.437Z,33.52
2023-04-08T01:24:31.733Z,35.96
2023-04-08T01:26:03.082Z,30.47
2023-04-08T01:27:34.437Z,29.92
2023-04-08T01:29:11.112Z,28.53
2023-04-08T01:30:42.436Z,35.27
2023-04-08T01:32:13.902Z,31.13
2023-04-08T01:33:45.476Z,26.61
2023-04-08T01:35:16.764Z,22.54
2023-04-08T01:36:47.996Z,24.85
2023-04-08T01:38:19.348Z,25.96
2023-04-08T01:39:50.638Z,37.09
2023-04-08T01:41:22.117Z,35.56
2023-04-08T01:42:53.477Z,26.39
2023-04-08T01:44:24.662Z,54.66
2023-04-08T01:45:55.960Z,62.44
2023-04-08T01:47:27.180Z,94.94
2023-04-08T01:48:58.441Z,50.88
2023-04-08T01:50:29.704Z,43.25
2023-04-08T01:52:00.886Z,43.92
2023-04-08T01:53:32.193Z,65.20
2023-04-08T01:55:03.819Z,199.09
2023-04-08T01:56:40.087Z,212.29
2023-04-08T01:58:11.304Z,142.55
2023-04-08T01:59:42.625Z,149.24
2023-04-08T02:01:13.868Z,140.10
2023-04-08T02:02:45.322Z,114.15
2023-04-08T02:04:16.847Z,163.58
2023-04-08T02:05:48.142Z,128.65
2023-04-08T02:07:19.430Z,117.21
2023-04-08T02:08:51.007Z,110.35
2023-04-08T02:10:22.511Z,154.08
2023-04-08T02:11:53.840Z,214.22
2023-04-08T02:13:25.128Z,209.44
2023-04-08T02:14:56.906Z,231.23
2023-04-08T02:16:28.193Z,165.61
2023-04-08T02:17:59.674Z,145.69
2023-04-08T02:19:30.901Z,197.20
2023-04-08T02:21:02.149Z,119.95
2023-04-08T02:22:33.650Z,155.44
2023-04-08T02:24:04.885Z,205.87
2023-04-08T02:25:36.170Z,286.15
2023-04-08T02:27:08.273Z,322.21
2023-04-08T02:28:39.901Z,154.00
2023-04-08T02:30:11.178Z,168.85
2023-04-08T02:31:42.413Z,137.49
2023-04-08T02:33:13.621Z,123.17
2023-04-08T02:34:44.890Z,152.33
2023-04-08T02:36:21.331Z,115.12
2023-04-08T02:37:52.604Z,81.42
2023-04-08T02:39:23.904Z,70.60
2023-04-08T02:40:55.290Z,82.93
2023-04-08T02:42:26.770Z,76.12
2023-04-08T02:43:58.138Z,50.48
2023-04-08T02:45:29.463Z,61.61
2023-04-08T02:47:00.787Z,55.81
2023-04-08T02:48:32.098Z,61.07
2023-04-08T02:50:03.341Z,75.67
2023-04-08T02:51:34.730Z,131.79
2023-04-08T02:53:06.128Z,72.89
2023-04-08T02:54:37.433Z,58.06
2023-04-08T02:56:08.589Z,108.07
2023-04-08T02:57:39.793Z,75.60
2023-04-08T02:59:11.229Z,68.18
2023-04-08T03:00:42.518Z,69.23
2023-04-08T03:02:13.821Z,60.33
2023-04-08T03:03:45.319Z,83.22
2023-04-08T03:05:21.924Z,72.17
2023-04-08T03:06:53.200Z,69.78
2023-04-08T03:08:24.480Z,94.90
2023-04-08T03:09:55.807Z,86.01
2023-04-08T03:11:27.514Z,72.96
2023-04-08T03:12:58.772Z,125.67
2023-04-08T03:14:30.036Z,65.53
2023-04-08T03:16:01.352Z,97.26
2023-04-08T03:17:32.938Z,128.57
2023-04-08T03:19:04.148Z,63.50
2023-04-08T03:20:35.447Z,44.38
2023-04-08T03:22:06.894Z,52.19
2023-04-08T03:23:38.108Z,44.89
2023-04-08T03:25:09.365Z,35.62
2023-04-08T03:26:40.768Z,50.98
2023-04-08T03:28:12.138Z,86.89
2023-04-08T03:29:43.380Z,116.46
2023-04-08T03:31:14.653Z,91.45
2023-04-08T03:32:46.179Z,59.07
2023-04-08T03:34:17.389Z,80.95
2023-04-08T03:35:48.917Z,89.41
2023-04-08T03:37:20.249Z,130.28
2023-04-08T03:38:57.826Z,128.99
2023-04-08T03:40:30.468Z,53.49
2023-04-08T03:42:01.892Z,66.76
2023-04-08T03:43:38.226Z,51.71
2023-04-08T03:45:09.452Z,57.92
2023-04-08T03:46:40.731Z,53.65
2023-04-08T03:48:12.067Z,75.33
2023-04-08T03:49:43.570Z,89.38
2023-04-08T03:51:14.808Z,102.14
2023-04-08T03:52:46.121Z,114.76
2023-04-08T03:54:17.965Z,75.20
2023-04-08T03:55:49.611Z,56.39
2023-04-08T03:57:20.780Z,62.17
2023-04-08T03:58:52.368Z,120.57
2023-04-08T04:00:23.804Z,120.25
2023-04-08T04:01:54.999Z,125.23
2023-04-08T04:03:26.620Z,101.95
2023-04-08T04:04:58.134Z,69.53
2023-04-08T04:06:29.582Z,88.11
2023-04-08T04:08:00.887Z,102.02
2023-04-08T04:09:32.132Z,119.86
2023-04-08T04:11:03.448Z,109.72
2023-04-08T04:12:34.678Z,82.56
2023-04-08T04:14:05.958Z,73.52
2023-04-08T04:15:37.268Z,82.82
2023-04-08T04:17:08.523Z,90.18
2023-04-08T04:18:40.084Z,97.82
2023-04-08T04:20:11.564Z,78.95
2023-04-08T04:21:43.322Z,91.15
2023-04-08T04:23:14.650Z,85.37
2023-04-08T04:24:46.261Z,113.96
2023-04-08T04:26:17.737Z,100.11
2023-04-08T04:27:49.279Z,110.28
2023-04-08T04:29:20.680Z,105.83
2023-04-08T04:30:52.377Z,109.98
2023-04-08T04:32:24.746Z,119.50
2023-04-08T04:33:56.275Z,154.53
2023-04-08T04:35:27.595Z,169.14
2023-04-08T04:36:59.263Z,167.38
2023-04-08T04:38:31.416Z,132.71
2023-04-08T04:40:02.849Z,74.65
2023-04-08T04:41:34.062Z,112.96
2023-04-08T04:43:05.287Z,128.89
2023-04-08T04:44:36.727Z,122.22
2023-04-08T04:46:18.018Z,151.19
2023-04-08T04:47:49.520Z,145.16
2023-04-08T04:49:20.741Z,137.92
2023-04-08T04:50:52.172Z,258.44
2023-04-08T04:52:23.381Z,236.23
2023-04-08T04:53:54.870Z,232.08
2023-04-08T04:55:26.201Z,149.68
2023-04-08T04:56:57.486Z,197.17
2023-04-08T04:58:28.881Z,196.29
2023-04-08T05:00:00.307Z,161.19
2023-04-08T05:01:31.739Z,137.01
2023-04-08T05:03:03.085Z,173.05
2023-04-08T05:04:34.578Z,186.87
2023-04-08T05:06:05.984Z,217.97
2023-04-08T05:07:37.154Z,207.20
2023-04-08T05:09:08.391Z,282.39
2023-04-08T05:10:39.684Z,275.88
2023-04-08T05:12:10.894Z,262.19
2023-04-08T05:13:42.094Z,212.56
2023-04-08T05:15:13.344Z,202.05
2023-04-08T05:16:44.658Z,222.20
2023-04-08T05:18:16.042Z,179.01
2023-04-08T05:19:47.857Z,172.39
2023-04-08T05:21:19.181Z,186.35
2023-04-08T05:22:50.526Z,106.97
2023-04-08T05:24:21.707Z,172.52
2023-04-08T05:25:53.065Z,191.72
2023-04-08T05:27:24.216Z,100.61
2023-04-08T05:28:55.716Z,120.22
2023-04-08T05:30:26.969Z,97.08
2023-04-08T05:31:58.257Z,157.66
2023-04-08T05:33:29.609Z,144.42
2023-04-08T05:35:00.865Z,92.79
2023-04-08T05:36:32.169Z,92.55
2023-04-08T05:38:03.481Z,83.30
2023-04-08T05:39:34.792Z,145.46
2023-04-08T05:41:06.120Z,114.19
2023-04-08T05:42:37.392Z,165.80
2023-04-08T05:44:08.740Z,127.03
2023-04-08T05:45:40.055Z,77.27
2023-04-08T05:47:11.576Z,73.03
2023-04-08T05:48:48.755Z,94.25
2023-04-08T05:51:34.183Z,120.34
2023-04-08T05:53:05.717Z,183.85
2023-04-08T05:54:37.778Z,229.69
2023-04-08T05:56:14.529Z,109.51
2023-04-08T05:57:46.025Z,124.01
2023-04-08T05:59:27.498Z,143.32
2023-04-08T06:00:58.832Z,98.97
2023-04-08T06:02:30.360Z,127.25
2023-04-08T06:04:02.234Z,202.02
2023-04-08T06:05:34.042Z,94.59
2023-04-08T06:07:05.203Z,112.14
2023-04-08T06:08:36.387Z,162.29
2023-04-08T06:10:07.529Z,136.99
2023-04-08T06:11:38.852Z,143.59
2023-04-08T06:13:10.268Z,148.93
2023-04-08T06:14:41.477Z,152.20
2023-04-08T06:16:12.741Z,94.05
2023-04-08T06:17:44.055Z,87.54
2023-04-08T06:19:15.271Z,88.66
2023-04-08T06:20:48.668Z,109.52
2023-04-08T06:22:19.948Z,116.98
2023-04-08T06:23:51.204Z,119.67
2023-04-08T06:25:22.389Z,114.51
2023-04-08T06:26:53.781Z,106.74
2023-04-08T06:28:25.164Z,126.70
2023-04-08T06:29:56.523Z,96.63
2023-04-08T06:31:27.807Z,94.78
2023-04-08T06:33:04.100Z,138.29
2023-04-08T06:34:35.762Z,151.03
2023-04-08T06:36:07.012Z,88.45
2023-04-08T06:37:38.645Z,65.01
2023-04-08T06:39:09.969Z,76.72
2023-04-08T06:40:41.177Z,67.46
2023-04-08T06:42:12.448Z,85.39
2023-04-08T06:43:43.680Z,94.88
2023-04-08T06:45:15.150Z,101.76
2023-04-08T06:46:46.751Z,96.05
2023-04-08T06:48:18.293Z,109.01
2023-04-08T06:49:49.854Z,97.26
2023-04-08T06:51:21.086Z,73.02
2023-04-08T06:52:52.377Z,105.91
2023-04-08T06:54:23.642Z,277.92
2023-04-08T06:55:55.001Z,113.45
2023-04-08T06:57:26.295Z,84.76
2023-04-08T06:58:57.651Z,117.52
2023-04-08T07:00:28.919Z,90.65
2023-04-08T07:02:00.475Z,99.83
2023-04-08T07:03:32.453Z,98.57
2023-04-08T07:05:03.987Z,110.72
2023-04-08T07:06:35.343Z,92.25
2023-04-08T07:08:06.915Z,83.26
2023-04-08T07:09:38.592Z,75.49
2023-04-08T07:11:09.836Z,69.25
2023-04-08T07:12:41.095Z,68.43
2023-04-08T07:14:12.291Z,64.64
2023-04-08T07:15:43.687Z,59.20
2023-04-08T07:17:15.230Z,57.81
2023-04-08T07:18:46.655Z,60.87
2023-04-08T07:20:18.935Z,59.35
2023-04-08T07:21:55.211Z,66.25
2023-04-08T07:23:26.750Z,68.82
2023-04-08T07:24:58.059Z,76.25
2023-04-08T07:26:29.225Z,70.40
2023-04-08T07:28:00.598Z,68.45
2023-04-08T07:29:31.798Z,65.12
2023-04-08T07:31:03.448Z,67.96
2023-04-08T07:32:35.226Z,62.47
2023-04-08T07:34:06.480Z,61.14
2023-04-08T07:35:38.051Z,67.38
2023-04-08T07:37:09.477Z,67.08
2023-04-08T07:38:40.783Z,66.30
2023-04-08T07:40:12.287Z,66.32
2023-04-08T07:41:45.246Z,66.27
2023-04-08T07:43:16.517Z,63.90
2023-04-08T07:44:48.115Z,51.87
2023-04-08T07:46:19.544Z,54.80
2023-04-08T07:47:50.933Z,58.58
2023-04-08T07:49:22.206Z,54.08
2023-04-08T07:51:08.363Z,62.38
2023-04-08T07:52:42.350Z,62.42
2023-04-08T07:54:14.311Z,62.15
2023-04-08T07:55:45.530Z,56.53
2023-04-08T07:57:16.855Z,61.31
2023-04-08T07:58:49.586Z,64.18
2023-04-08T08:00:22.530Z,53.61
2023-04-08T08:01:53.925Z,59.06
2023-04-08T08:03:25.472Z,59.61
2023-04-08T08:04:56.993Z,56.16
2023-04-08T08:06:29.045Z,55.10
2023-04-08T08:08:05.756Z,57.31
2023-04-08T08:09:37.203Z,56.39
2023-04-08T08:11:08.721Z,55.24
2023-04-08T08:12:40.017Z,48.45
2023-04-08T08:14:11.206Z,46.89
2023-04-08T08:15:47.758Z,42.83
2023-04-08T08:17:25.435Z,42.75
2023-04-08T08:18:58.572Z,39.52
2023-04-08T08:20:34.893Z,35.64
2023-04-08T08:22:06.226Z,38.64
2023-04-08T08:23:38.260Z,34.80
2023-04-08T08:25:09.721Z,36.54
2023-04-08T08:26:40.919Z,37.03
2023-04-08T08:28:12.203Z,38.29
2023-04-08T08:29:43.527Z,40.24
2023-04-08T08:31:15.484Z,36.27
2023-04-08T08:32:47.059Z,35.05
2023-04-08T08:34:18.413Z,36.80
2023-04-08T08:35:49.655Z,32.70
2023-04-08T08:37:20.903Z,32.16
2023-04-08T08:38:52.644Z,31.47
2023-04-08T08:40:25.003Z,28.66
2023-04-08T08:41:56.411Z,28.34
2023-04-08T08:43:27.794Z,29.04
2023-04-08T08:44:59.220Z,29.93
2023-04-08T08:46:30.587Z,32.12
2023-04-08T08:48:02.095Z,30.91
2023-04-08T08:49:33.401Z,31.07
2023-04-08T08:51:04.843Z,29.57
2023-04-08T08:52:36.058Z,29.05
2023-04-08T08:54:07.347Z,28.58
2023-04-08T08:56:00.324Z,27.22
2023-04-08T08:57:44.683Z,28.45
2023-04-08T08:59:21.127Z,27.65
2023-04-08T09:01:02.785Z,27.42
2023-04-08T09:02:39.402Z,27.76
2023-04-08T09:04:11.332Z,26.74
2023-04-08T09:05:43.081Z,27.31
2023-04-08T09:07:14.548Z,25.62
2023-04-08T09:08:45.880Z,25.20
2023-04-08T09:10:17.281Z,25.56
2023-04-08T09:11:48.690Z,27.88
2023-04-08T09:13:20.080Z,26.56
2023-04-08T09:14:51.418Z,27.29
2023-04-08T09:16:22.901Z,28.18
2023-04-08T09:17:54.234Z,25.75
2023-04-08T09:19:25.721Z,23.00
2023-04-08T09:20:57.061Z,26.11
2023-04-08T09:22:28.351Z,22.71
2023-04-08T09:23:59.650Z,22.31
2023-04-08T09:25:30.949Z,21.99
2023-04-08T09:27:02.506Z,22.75
2023-04-08T09:28:33.733Z,21.29
2023-04-08T09:30:06.094Z,20.56
2023-04-08T09:31:37.530Z,22.15
2023-04-08T09:33:09.299Z,20.77
2023-04-08T09:34:40.629Z,22.04
2023-04-08T09:36:11.987Z,21.47
2023-04-08T09:37:43.343Z,19.95
2023-04-08T09:39:14.633Z,19.32
2023-04-08T09:40:46.220Z,19.38
2023-04-08T09:42:18.941Z,19.43
2023-04-08T09:43:50.843Z,18.16
2023-04-08T09:45:22.236Z,18.44
2023-04-08T09:46:58.953Z,18.86
2023-04-08T09:48:30.238Z,22.07
2023-04-08T09:50:01.946Z,20.17
2023-04-08T09:51:33.550Z,17.62
2023-04-08T09:53:04.817Z,19.44
2023-04-08T09:54:36.201Z,18.95
2023-04-08T09:56:07.393Z,18.78
2023-04-08T09:57:39.519Z,18.80
2023-04-08T09:59:10.717Z,18.52
2023-04-08T10:00:41.971Z,18.43
2023-04-08T10:02:13.489Z,16.84
2023-04-08T10:03:50.239Z,17.20
2023-04-08T10:05:32.271Z,15.90
2023-04-08T10:07:34.904Z,15.73
2023-04-08T10:09:06.147Z,17.07
2023-04-08T10:10:48.174Z,15.41
2023-04-08T10:12:19.587Z,15.68
2023-04-08T10:13:51.150Z,14.98
2023-04-08T10:15:22.565Z,15.11
2023-04-08T10:16:59.272Z,16.42
2023-04-08T10:18:30.549Z,14.81
2023-04-08T10:20:01.896Z,15.84
2023-04-08T10:21:33.320Z,16.55
2023-04-08T10:23:04.742Z,16.32
2023-04-08T10:24:36.016Z,17.09
2023-04-08T10:26:07.247Z,17.92
2023-04-08T10:27:43.604Z,17.77
2023-04-08T10:29:14.824Z,16.30
2023-04-08T10:30:46.009Z,16.46
2023-04-08T10:32:17.241Z,16.26
2023-04-08T10:33:49.025Z,16.22
2023-04-08T10:35:20.560Z,15.57
2023-04-08T10:36:51.832Z,15.83
2023-04-08T10:38:23.237Z,17.42
2023-04-08T10:39:54.525Z,15.43
2023-04-08T10:41:25.922Z,15.71
2023-04-08T10:42:58.395Z,16.30
2023-04-08T10:44:29.831Z,16.57
2023-04-08T10:46:06.226Z,15.76
2023-04-08T10:47:37.966Z,16.40
2023-04-08T10:49:09.292Z,19.32
2023-04-08T10:50:50.639Z,17.30
2023-04-08T10:52:22.168Z,17.12
2023-04-08T10:53:53.457Z,15.97
2023-04-08T10:55:24.880Z,16.78
2023-04-08T10:56:56.094Z,16.88
2023-04-08T10:58:27.444Z,19.30
2023-04-08T10:59:58.779Z,16.93
2023-04-08T11:01:30.343Z,16.06
2023-04-08T11:03:01.907Z,17.90
2023-04-08T11:04:33.694Z,16.97
2023-04-08T11:06:10.064Z,16.83
2023-04-08T11:07:42.081Z,18.96
2023-04-08T11:09:13.776Z,17.54
2023-04-08T11:10:45.050Z,17.99
2023-04-08T11:12:21.474Z,18.00
2023-04-08T11:13:53.936Z,17.07
2023-04-08T11:15:25.500Z,17.31
2023-04-08T11:16:56.795Z,18.80
2023-04-08T11:18:28.057Z,17.14
2023-04-08T11:19:59.479Z,17.71
2023-04-08T11:21:30.745Z,19.09
2023-04-08T11:23:02.061Z,19.65
2023-04-08T11:24:33.331Z,19.75
2023-04-08T11:26:06.109Z,19.25
2023-04-08T11:27:37.970Z,18.97
2023-04-08T11:29:09.308Z,18.94
2023-04-08T11:30:40.887Z,19.41
2023-04-08T11:32:12.206Z,20.02
2023-04-08T11:33:43.776Z,20.47
2023-04-08T11:35:15.034Z,19.80
2023-04-08T11:36:46.291Z,19.91
2023-04-08T11:38:17.581Z,19.06
2023-04-08T11:39:49.002Z,20.06
2023-04-08T11:41:20.377Z,18.74
2023-04-08T11:42:51.906Z,20.57
2023-04-08T11:44:23.616Z,18.28
2023-04-08T11:45:55.046Z,17.89
2023-04-08T11:47:26.402Z,21.27
2023-04-08T11:48:57.758Z,20.32
2023-04-08T11:50:29.050Z,20.77
2023-04-08T11:52:00.477Z,19.61
2023-04-08T11:53:31.759Z,18.94
2023-04-08T11:55:03.052Z,20.30
2023-04-08T11:56:40.151Z,20.07
2023-04-08T11:58:11.517Z,19.77
2023-04-08T11:59:47.969Z,18.44
2023-04-08T12:01:19.401Z,17.74
2023-04-08T12:02:50.866Z,15.79
2023-04-08T12:04:22.454Z,15.51
2023-04-08T12:05:53.968Z,14.90
2023-04-08T12:07:27.129Z,14.02
2023-04-08T12:08:58.729Z,15.60
2023-04-08T12:10:30.292Z,15.39
2023-04-08T12:12:03.251Z,15.26
2023-04-08T12:13:34.749Z,14.66
2023-04-08T12:15:06.259Z,15.97
2023-04-08T12:16:37.624Z,17.72
2023-04-08T12:18:09.302Z,15.06
2023-04-08T12:19:41.338Z,14.29
2023-04-08T12:21:12.944Z,15.35
2023-04-08T12:22:45.347Z,15.13
2023-04-08T12:24:17.057Z,14.72
2023-04-08T12:26:01.245Z,14.18
2023-04-08T12:27:33.775Z,14.06
2023-04-08T12:31:21.256Z,14.70
2023-04-08T12:32:53.250Z,14.01
2023-04-08T12:34:39.911Z,12.72
2023-04-08T12:36:31.595Z,12.88
2023-04-08T12:38:32.895Z,13.08
2023-04-08T12:40:41.735Z,13.11
2023-04-08T12:42:18.561Z,14.72
2023-04-08T12:44:07.309Z,14.91
2023-04-08T12:45:38.611Z,12.72
2023-04-08T12:47:20.774Z,11.70
2023-04-08T12:49:12.038Z,12.15
2023-04-08T12:50:43.337Z,11.77
2023-04-08T12:52:14.688Z,11.33
2023-04-08T12:53:46.034Z,12.62
2023-04-08T12:55:17.384Z,21.35
2023-04-08T12:56:48.743Z,38.35
2023-04-08T12:58:22.410Z,21.30
2023-04-08T12:59:53.988Z,16.40
2023-04-08T13:01:25.497Z,19.66
2023-04-08T13:02:57.053Z,18.34
2023-04-08T13:04:28.803Z,19.19
2023-04-08T13:06:00.142Z,18.02
2023-04-08T13:07:31.522Z,36.53
2023-04-08T13:09:02.962Z,45.49
2023-04-08T13:10:35.086Z,33.60
2023-04-08T13:12:06.691Z,15.44
2023-04-08T13:13:38.156Z,13.40
2023-04-08T13:15:09.444Z,14.39
2023-04-08T13:16:40.984Z,13.38
2023-04-08T13:18:12.539Z,14.34
2023-04-08T13:19:43.900Z,13.54
2023-04-08T13:21:15.268Z,15.74
2023-04-08T13:22:46.600Z,14.23
2023-04-08T13:24:17.995Z,14.01
2023-04-08T13:25:49.534Z,15.85
2023-04-08T13:27:20.908Z,15.14
2023-04-08T13:28:57.446Z,14.19
2023-04-08T13:30:29.829Z,15.80
2023-04-08T13:32:01.401Z,16.48
2023-04-08T13:33:32.797Z,15.99
2023-04-08T13:35:04.051Z,13.77
2023-04-08T13:36:36.223Z,14.69
2023-04-08T13:38:07.556Z,14.54
2023-04-08T13:39:39.159Z,14.54
2023-04-08T13:41:10.466Z,14.99
2023-04-08T13:42:41.729Z,15.99
2023-04-08T13:44:13.054Z,15.64
2023-04-08T13:45:44.558Z,15.81
2023-04-08T13:47:15.940Z,15.32
2023-04-08T13:48:47.482Z,16.08
2023-04-08T13:50:18.889Z,17.24
2023-04-08T13:51:50.219Z,26.48
2023-04-08T13:53:21.662Z,61.65
2023-04-08T13:54:53.124Z,55.72
2023-04-08T13:56:24.599Z,41.75
2023-04-08T14:00:00.516Z,18.10
2023-04-08T14:01:31.962Z,25.57
2023-04-08T14:03:03.251Z,34.51
2023-04-08T14:04:34.763Z,23.12
2023-04-08T14:06:06.037Z,23.29
2023-04-08T14:07:37.555Z,23.89
2023-04-08T14:09:09.059Z,18.45
2023-04-08T14:10:40.385Z,17.60
2023-04-08T14:12:11.814Z,18.57
2023-04-08T14:13:43.202Z,26.58
2023-04-08T14:15:14.638Z,17.60
2023-04-08T14:16:45.924Z,15.76
2023-04-08T14:18:17.671Z,15.07
2023-04-08T14:19:49.262Z,15.16
2023-04-08T14:21:20.558Z,15.65
2023-04-08T14:22:51.902Z,16.22
2023-04-08T14:24:23.304Z,15.51
2023-04-08T14:25:54.914Z,15.30
2023-04-08T14:27:26.259Z,16.38
2023-04-08T14:28:57.564Z,16.52
2023-04-08T14:30:29.038Z,33.99
2023-04-08T14:32:10.675Z,23.60
2023-04-08T14:33:42.035Z,17.51
2023-04-08T14:35:13.471Z,44.04
2023-04-08T14:36:44.924Z,54.59
2023-04-08T14:38:16.196Z,37.04
2023-04-08T14:39:48.641Z,25.16
2023-04-08T14:41:20.971Z,32.58
2023-04-08T14:42:52.320Z,79.20
2023-04-08T14:44:23.774Z,18.08
2023-04-08T14:45:55.328Z,19.76
2023-04-08T14:47:26.802Z,18.76
2023-04-08T14:48:58.407Z,66.13
2023-04-08T14:50:29.797Z,62.07
2023-04-08T14:52:01.165Z,25.86
2023-04-08T14:53:32.680Z,18.53
2023-04-08T14:55:04.070Z,16.50
2023-04-08T14:56:35.494Z,17.05
2023-04-08T14:58:06.808Z,18.28
2023-04-08T14:59:38.108Z,18.38
2023-04-08T15:01:09.655Z,16.89
2023-04-08T15:02:41.091Z,16.39
2023-04-08T15:04:12.806Z,15.17
2023-04-08T15:05:44.322Z,15.82
2023-04-08T15:07:15.666Z,14.35
2023-04-08T15:08:47.103Z,14.69
2023-04-08T15:10:18.458Z,16.17
2023-04-08T15:11:49.832Z,14.96
2023-04-08T15:13:21.098Z,17.01
2023-04-08T15:14:52.390Z,15.26
2023-04-08T15:16:23.873Z,14.44
2023-04-08T15:17:55.445Z,13.94
2023-04-08T15:19:27.019Z,15.58
2023-04-08T15:20:58.581Z,12.90
2023-04-08T15:22:30.396Z,41.71
2023-04-08T15:24:01.895Z,78.94
2023-04-08T15:25:33.270Z,27.18
2023-04-08T15:27:04.615Z,94.90
2023-04-08T15:28:36.109Z,15.16
2023-04-08T15:30:07.573Z,17.22
2023-04-08T15:31:39.000Z,103.47
2023-04-08T15:33:10.420Z,34.74
2023-04-08T15:34:41.842Z,20.44
2023-04-08T15:36:13.182Z,16.47
2023-04-08T15:37:44.674Z,65.17
2023-04-08T15:39:16.043Z,22.52
2023-04-08T15:40:48.459Z,19.84
2023-04-08T15:42:19.896Z,21.56
2023-04-08T15:43:51.243Z,32.47
2023-04-08T15:45:22.528Z,16.13
2023-04-08T15:46:54.180Z,16.77
2023-04-08T15:48:25.450Z,20.12
2023-04-08T15:49:56.851Z,17.67
2023-04-08T15:51:28.201Z,26.39
2023-04-08T15:52:59.446Z,22.02
2023-04-08T15:54:31.283Z,33.46
2023-04-08T15:56:02.648Z,18.38
2023-04-08T15:57:34.207Z,17.62
2023-04-08T15:59:05.480Z,17.39
2023-04-08T16:00:36.848Z,19.98
2023-04-08T16:02:13.628Z,34.63
2023-04-08T16:03:45.233Z,28.56
2023-04-08T16:05:17.357Z,36.68
2023-04-08T16:06:48.799Z,82.03
2023-04-08T16:08:20.078Z,77.56
2023-04-08T16:09:51.412Z,27.32
2023-04-08T16:11:22.868Z,21.87
2023-04-08T16:12:54.469Z,21.45
2023-04-08T16:14:26.116Z,17.66
2023-04-08T16:15:57.671Z,23.95
2023-04-08T16:17:29.372Z,54.87
2023-04-08T16:19:00.951Z,34.97
2023-04-08T16:20:32.218Z,20.46
2023-04-08T16:22:03.532Z,29.96
2023-04-08T16:25:36.832Z,35.44
2023-04-08T16:27:24.442Z,19.99
2023-04-08T16:29:02.019Z,18.48
2023-04-08T16:30:33.606Z,19.14
2023-04-08T16:32:05.280Z,21.61
2023-04-08T16:33:37.308Z,19.06
2023-04-08T16:35:08.730Z,18.99
2023-04-08T16:36:40.471Z,19.57
2023-04-08T16:38:36.701Z,20.72
2023-04-08T16:42:03.288Z,20.45
2023-04-08T16:43:34.843Z,21.78
2023-04-08T16:45:06.185Z,21.84
2023-04-08T16:47:07.141Z,44.16
2023-04-08T16:48:38.639Z,53.37
2023-04-08T16:50:09.986Z,59.14
2023-04-08T16:51:41.606Z,66.18
2023-04-08T16:53:12.989Z,88.95
2023-04-08T16:54:44.259Z,49.83
2023-04-08T16:56:20.817Z,31.70
2023-04-08T16:57:52.164Z,62.37
2023-04-08T16:59:28.743Z,34.97
2023-04-08T17:01:42.459Z,26.94
2023-04-08T17:03:14.196Z,49.42
2023-04-08T17:04:55.541Z,42.28
2023-04-08T17:06:26.835Z,35.07
2023-04-08T17:07:58.218Z,30.68
2023-04-08T17:09:29.515Z,26.68
2023-04-08T17:11:16.123Z,34.81
2023-04-08T17:13:05.541Z,89.99
2023-04-08T17:14:42.012Z,76.08
2023-04-08T17:16:13.303Z,48.07
2023-04-08T17:17:44.687Z,38.41
2023-04-08T17:19:16.102Z,41.79
2023-04-08T17:20:47.439Z,33.36
2023-04-08T17:22:18.758Z,31.06
2023-04-08T17:23:55.244Z,43.13
2023-04-08T17:25:26.653Z,81.78
2023-04-08T17:26:58.300Z,118.51
2023-04-08T17:28:29.553Z,52.18
2023-04-08T17:30:00.998Z,43.21
2023-04-08T17:31:32.354Z,40.13
2023-04-08T17:33:03.780Z,37.53
2023-04-08T17:34:35.264Z,31.70
2023-04-08T17:36:06.527Z,31.10
2023-04-08T17:37:37.919Z,32.21
2023-04-08T17:39:14.416Z,32.22
2023-04-08T17:40:45.980Z,31.39
2023-04-08T17:42:17.427Z,33.14
2023-04-08T17:43:49.094Z,46.11
2023-04-08T17:45:20.718Z,43.80
2023-04-08T17:46:52.102Z,35.80
2023-04-08T17:48:23.381Z,33.24
2023-04-08T17:49:54.856Z,33.70
2023-04-08T17:51:26.313Z,34.91
2023-04-08T17:52:57.608Z,32.45
2023-04-08T17:54:29.036Z,35.13
2023-04-08T17:56:00.425Z,38.80
2023-04-08T17:57:31.864Z,64.98
2023-04-08T17:59:03.189Z,45.67
2023-04-08T18:00:34.637Z,36.91
2023-04-08T18:02:06.207Z,36.11
2023-04-08T18:03:37.956Z,36.73
2023-04-08T18:05:09.425Z,36.99
2023-04-08T18:06:40.736Z,35.81
2023-04-08T18:08:12.123Z,32.94
2023-04-08T18:09:43.712Z,38.39
2023-04-08T18:11:14.989Z,32.05
2023-04-08T18:12:47.812Z,32.78
2023-04-08T18:14:20.489Z,32.02
2023-04-08T18:15:52.141Z,34.81
2023-04-08T18:17:23.845Z,34.22
2023-04-08T18:18:55.397Z,35.07
2023-04-08T18:20:26.638Z,97.28
2023-04-08T18:21:57.992Z,118.88
2023-04-08T18:23:29.433Z,106.71
2023-04-08T18:25:00.760Z,113.08
2023-04-08T18:26:31.998Z,56.31
2023-04-08T18:28:03.197Z,40.69
2023-04-08T18:29:34.706Z,34.83
2023-04-08T18:31:06.122Z,46.23
2023-04-08T18:32:37.679Z,51.81
2023-04-08T18:34:09.095Z,38.37
2023-04-08T18:35:40.682Z,46.61
2023-04-08T18:37:12.178Z,40.46
2023-04-08T18:38:43.741Z,33.05
2023-04-08T18:40:15.288Z,29.49
2023-04-08T18:41:46.669Z,32.32
2023-04-08T18:43:18.156Z,31.64
2023-04-08T18:44:49.693Z,33.04
2023-04-08T18:46:21.082Z,35.16
2023-04-08T18:47:52.414Z,34.73
2023-04-08T18:49:23.679Z,31.91
2023-04-08T18:50:55.020Z,34.46
2023-04-08T18:52:26.347Z,43.72
2023-04-08T18:53:57.725Z,123.38
2023-04-08T18:55:29.104Z,119.91
2023-04-08T18:57:00.338Z,81.39
2023-04-08T18:58:31.572Z,57.87
2023-04-08T19:00:03.001Z,56.72
2023-04-08T19:01:34.822Z,52.24
2023-04-08T19:03:11.345Z,43.70
2023-04-08T19:04:42.822Z,32.72
2023-04-08T19:06:14.172Z,36.81
2023-04-08T19:07:45.442Z,41.93
2023-04-08T19:09:16.898Z,34.63
2023-04-08T19:10:48.742Z,33.38
2023-04-08T19:12:20.085Z,34.63
2023-04-08T19:13:51.481Z,33.95
2023-04-08T19:15:23.433Z,33.44
2023-04-08T19:16:54.863Z,32.43
2023-04-08T19:18:26.179Z,30.47
2023-04-08T19:19:57.619Z,32.67
2023-04-08T19:21:34.159Z,35.59
2023-04-08T19:23:05.377Z,35.70
2023-04-08T19:24:36.763Z,33.92
2023-04-08T19:26:08.057Z,31.33
2023-04-08T19:27:39.483Z,31.64
2023-04-08T19:29:10.777Z,35.39
2023-04-08T19:30:42.285Z,31.77
2023-04-08T19:32:13.711Z,32.19
2023-04-08T19:33:45.074Z,31.74
2023-04-08T19:35:16.350Z,31.57
2023-04-08T19:36:47.883Z,33.78
2023-04-08T19:38:19.193Z,33.78
2023-04-08T19:39:50.486Z,31.84
2023-04-08T19:41:22.017Z,30.81
2023-04-08T19:42:53.370Z,32.15
2023-04-08T19:44:24.678Z,34.28
2023-04-08T19:45:55.982Z,34.45
2023-04-08T19:47:27.336Z,33.24
2023-04-08T19:48:58.853Z,34.71
2023-04-08T19:50:30.269Z,34.84
2023-04-08T19:52:01.553Z,34.81
2023-04-08T19:53:33.043Z,34.67